Decoded Metar for KRHP (ANDREWS in NC, USA) (IATA:RHP) | Meteo·Mobile Aviation Weather
aviador You're here:

KRHP Decoded Metar

ANDREWS in NC, USA
Report Time2019-01-19 06:20:00
UTC Time2019-01-19 06:34:28
Flight Rules vfr VFR
WindCalm
Visibility9999 m
Phenomena:N/A
Clouds:Scattered 002 Hf
Scattered 030 Hf
CeilingNone
Temp04°C (ISA -8)
Dew Point04°C (100% RH)
AAT2.7°C
QNH1017 hPa
Density Alt761 ft
Elevation1,699 ft
Report Wrong Elevation
Raw Report
METAR KRHP 190620Z AUTO 00000KT 7SM SCT002 SCT030 04/04 A3003 RMK AO2
T00350035=

Extra information for KRHP:More info

Metar Taf Metar & Taf Last 4 Metars F.Rules Stats Wind Profile Meteogram Temp Stats Airport Information Weather charts Add Link Nearby VenuesMetar ALERT Operation Metar Decoded Social comments

AIRNAV info for KRHP